createdAt,value
2022-10-23T00:01:22.925Z,84.60
2022-10-23T00:03:53.069Z,85.21
2022-10-23T00:06:21.988Z,84.42
2022-10-23T00:08:50.688Z,85.27
2022-10-23T00:11:21.610Z,85.17
2022-10-23T00:13:52.295Z,85.21
2022-10-23T00:16:20.755Z,85.26
2022-10-23T00:18:49.409Z,85.60
2022-10-23T00:21:18.654Z,85.01
2022-10-23T00:23:47.645Z,84.73
2022-10-23T00:26:16.871Z,85.41
2022-10-23T00:28:46.638Z,84.90
2022-10-23T00:31:16.755Z,84.98
2022-10-23T00:33:46.077Z,85.59
2022-10-23T00:36:16.669Z,84.84
2022-10-23T00:38:46.020Z,85.06
2022-10-23T00:41:17.762Z,84.97
2022-10-23T00:44:06.348Z,85.21
2022-10-23T00:46:37.728Z,85.05
2022-10-23T00:49:07.078Z,85.46
2022-10-23T00:51:39.673Z,85.38
2022-10-23T00:54:25.109Z,85.25
2022-10-23T00:56:57.455Z,84.76
2022-10-23T00:59:26.289Z,85.04
2022-10-23T01:01:56.624Z,85.37
2022-10-23T01:04:27.176Z,84.68
2022-10-23T01:07:00.668Z,84.62
2022-10-23T01:09:33.527Z,85.35
2022-10-23T01:12:14.301Z,84.60
2022-10-23T01:14:51.380Z,84.82
2022-10-23T01:17:30.967Z,84.64
2022-10-23T01:20:12.134Z,85.44
2022-10-23T01:23:00.197Z,84.82
2022-10-23T01:25:42.367Z,85.51
2022-10-23T01:28:15.997Z,85.00
2022-10-23T01:30:45.887Z,85.46
2022-10-23T01:33:20.335Z,84.96
2022-10-23T01:35:57.420Z,84.67
2022-10-23T01:38:30.027Z,85.57
2022-10-23T01:41:04.330Z,85.13
2022-10-23T01:43:42.983Z,84.79
2022-10-23T01:46:14.768Z,84.03
2022-10-23T01:48:46.989Z,84.23
2022-10-23T01:51:17.232Z,84.40
2022-10-23T01:53:49.066Z,84.08
2022-10-23T01:56:22.799Z,84.63
2022-10-23T01:58:56.191Z,84.54
2022-10-23T02:01:28.883Z,84.86
2022-10-23T02:06:33.004Z,84.51
2022-10-23T02:09:01.615Z,84.96
2022-10-23T02:11:33.009Z,85.09
2022-10-23T02:14:07.885Z,83.94
2022-10-23T02:16:40.559Z,84.53
2022-10-23T02:19:16.858Z,84.58
2022-10-23T02:21:53.934Z,84.83
2022-10-23T02:24:31.718Z,85.04
2022-10-23T02:27:04.235Z,84.61
2022-10-23T02:29:38.880Z,84.83
2022-10-23T02:32:10.305Z,84.39
2022-10-23T02:34:39.179Z,84.24
2022-10-23T02:37:10.081Z,84.39
2022-10-23T02:39:38.656Z,84.85
2022-10-23T02:42:13.938Z,84.55
2022-10-23T02:44:56.127Z,83.84
2022-10-23T02:47:47.552Z,83.95
2022-10-23T02:50:26.890Z,84.80
2022-10-23T02:53:04.578Z,84.91
2022-10-23T02:55:45.744Z,84.13
2022-10-23T02:58:22.725Z,84.73
2022-10-23T03:00:59.599Z,83.89
2022-10-23T03:03:33.848Z,84.41
2022-10-23T03:06:02.609Z,83.54
2022-10-23T03:08:31.104Z,84.54
2022-10-23T03:10:59.600Z,83.36
2022-10-23T03:13:29.467Z,83.49
2022-10-23T03:15:59.694Z,83.10
2022-10-23T03:18:28.705Z,83.11
2022-10-23T03:21:00.421Z,83.34
2022-10-23T03:23:28.963Z,82.73
2022-10-23T03:25:57.459Z,83.21
2022-10-23T03:28:37.765Z,82.42
2022-10-23T03:31:07.645Z,82.84
2022-10-23T03:33:36.113Z,82.86
2022-10-23T03:36:12.948Z,83.33
2022-10-23T03:38:41.869Z,82.27
2022-10-23T03:41:12.142Z,82.71
2022-10-23T03:43:40.590Z,82.75
2022-10-23T03:46:12.781Z,82.03
2022-10-23T03:48:42.027Z,82.75
2022-10-23T03:51:10.458Z,82.98
2022-10-23T03:53:42.175Z,82.32
2022-10-23T03:56:10.699Z,82.78
2022-10-23T03:58:39.132Z,81.99
2022-10-23T04:01:10.403Z,82.87
2022-10-23T04:03:39.034Z,82.75
2022-10-23T04:06:08.172Z,81.17
2022-10-23T04:08:36.668Z,81.98
2022-10-23T04:11:11.313Z,81.85
2022-10-23T04:13:48.711Z,82.59
2022-10-23T04:16:18.548Z,81.48
2022-10-23T04:18:46.780Z,81.50
2022-10-23T04:21:15.183Z,81.68
2022-10-23T04:23:43.639Z,80.81
2022-10-23T04:26:17.229Z,81.33
2022-10-23T04:28:45.698Z,80.39
2022-10-23T04:31:14.210Z,80.35
2022-10-23T04:33:45.165Z,80.57
2022-10-23T04:36:27.266Z,79.28
2022-10-23T04:38:55.736Z,80.33
2022-10-23T04:41:24.305Z,79.87
2022-10-23T04:43:52.920Z,80.10
2022-10-23T04:46:21.540Z,78.63
2022-10-23T04:48:52.263Z,79.19
2022-10-23T04:51:23.429Z,78.91
2022-10-23T04:53:58.898Z,78.85
2022-10-23T04:56:37.789Z,79.11
2022-10-23T04:59:10.615Z,79.21
2022-10-23T05:01:40.489Z,79.09
2022-10-23T05:04:13.900Z,79.35
2022-10-23T05:07:01.070Z,79.37
2022-10-23T05:09:39.250Z,79.59
2022-10-23T05:12:18.278Z,79.20
2022-10-23T05:14:46.728Z,79.23
2022-10-23T05:17:18.401Z,78.92
2022-10-23T05:19:52.732Z,78.10
2022-10-23T05:22:26.261Z,78.29
2022-10-23T05:24:55.728Z,78.03
2022-10-23T05:27:26.508Z,78.49
2022-10-23T05:29:56.237Z,78.42
2022-10-23T05:32:30.855Z,78.61
2022-10-23T05:35:04.116Z,78.75
2022-10-23T05:37:33.099Z,78.34
2022-10-23T05:40:13.247Z,77.95
2022-10-23T05:42:43.984Z,78.22
2022-10-23T05:45:15.888Z,77.87
2022-10-23T05:48:10.971Z,78.65
2022-10-23T05:51:03.967Z,78.24
2022-10-23T05:53:44.553Z,78.31
2022-10-23T05:56:36.113Z,79.03
2022-10-23T05:59:24.810Z,78.47
2022-10-23T06:02:19.954Z,79.34
2022-10-23T06:04:54.740Z,79.33
2022-10-23T06:07:38.403Z,78.40
2022-10-23T06:10:09.028Z,78.67
2022-10-23T06:12:42.000Z,79.44
2022-10-23T06:15:14.816Z,80.63
2022-10-23T06:18:12.385Z,79.45
2022-10-23T06:20:52.184Z,80.30
2022-10-23T06:23:28.024Z,78.73
2022-10-23T06:26:10.997Z,79.43
2022-10-23T06:28:53.753Z,78.63
2022-10-23T06:31:26.800Z,77.67
2022-10-23T06:33:57.012Z,78.24
2022-10-23T06:36:26.316Z,77.06
2022-10-23T06:39:02.094Z,77.10
2022-10-23T06:41:50.523Z,77.56
2022-10-23T06:44:38.991Z,76.96
2022-10-23T06:47:13.013Z,76.20
2022-10-23T06:50:13.041Z,75.67
2022-10-23T06:52:47.436Z,75.60
2022-10-23T06:55:20.078Z,76.67
2022-10-23T06:57:48.681Z,75.83
2022-10-23T07:00:17.473Z,75.85
2022-10-23T07:02:57.690Z,75.74
2022-10-23T07:05:28.833Z,75.69
2022-10-23T07:07:57.488Z,75.38
2022-10-23T07:10:30.962Z,74.93
2022-10-23T07:13:03.112Z,74.96
2022-10-23T07:15:34.447Z,74.90
2022-10-23T07:18:03.399Z,75.18
2022-10-23T07:20:47.361Z,75.06
2022-10-23T07:23:16.902Z,74.01
2022-10-23T07:25:47.943Z,74.54
2022-10-23T07:28:22.382Z,73.97
2022-10-23T07:30:56.944Z,74.35
2022-10-23T07:33:26.199Z,73.43
2022-10-23T07:36:01.322Z,73.72
2022-10-23T07:38:30.367Z,73.05
2022-10-23T07:41:01.000Z,72.78
2022-10-23T07:43:30.293Z,71.82
2022-10-23T07:45:58.751Z,71.46
2022-10-23T07:48:33.356Z,71.68
2022-10-23T07:51:08.019Z,71.08
2022-10-23T07:53:40.211Z,70.71
2022-10-23T07:56:23.303Z,70.05
2022-10-23T07:59:13.130Z,69.86
2022-10-23T08:01:44.124Z,69.92
2022-10-23T08:04:13.248Z,69.82
2022-10-23T08:06:50.824Z,70.17
2022-10-23T08:09:19.837Z,68.74
2022-10-23T08:11:50.427Z,69.98
2022-10-23T08:14:21.156Z,68.99
2022-10-23T08:16:50.375Z,69.59
2022-10-23T08:19:18.885Z,68.07
2022-10-23T08:21:49.133Z,67.51
2022-10-23T08:24:18.019Z,67.26
2022-10-23T08:26:51.738Z,68.70
2022-10-23T08:29:29.067Z,66.13
2022-10-23T08:31:57.585Z,67.36
2022-10-23T08:34:38.460Z,66.97
2022-10-23T08:37:07.732Z,65.53
2022-10-23T08:39:37.266Z,63.85
2022-10-23T08:42:24.144Z,62.97
2022-10-23T08:45:00.334Z,62.74
2022-10-23T08:47:37.512Z,61.66
2022-10-23T08:53:04.322Z,62.04
2022-10-23T08:55:37.196Z,62.16
2022-10-23T08:58:10.883Z,61.12
2022-10-23T09:00:39.466Z,62.04
2022-10-23T09:03:07.977Z,61.64
2022-10-23T09:05:46.231Z,62.19
2022-10-23T09:08:28.677Z,61.50
2022-10-23T09:11:04.607Z,61.33
2022-10-23T09:14:01.209Z,61.32
2022-10-23T09:16:42.752Z,59.41
2022-10-23T09:19:17.563Z,59.15
2022-10-23T09:21:49.820Z,58.19
2022-10-23T09:24:20.597Z,57.99
2022-10-23T09:26:51.283Z,56.83
2022-10-23T09:29:24.677Z,56.74
2022-10-23T09:31:54.929Z,55.13
2022-10-23T09:34:25.687Z,54.31
2022-10-23T09:36:57.616Z,54.38
2022-10-23T09:39:29.996Z,53.95
2022-10-23T09:41:59.791Z,53.77
2022-10-23T09:44:31.617Z,53.70
2022-10-23T09:47:09.215Z,52.98
2022-10-23T09:49:41.537Z,52.47
2022-10-23T09:52:24.408Z,52.67
2022-10-23T09:54:55.608Z,51.33
2022-10-23T09:57:28.256Z,50.64
2022-10-23T10:00:02.145Z,50.22
2022-10-23T10:02:41.552Z,50.25
2022-10-23T10:05:33.503Z,50.10
2022-10-23T10:08:11.632Z,50.07
2022-10-23T10:10:46.273Z,49.64
2022-10-23T10:13:27.765Z,49.90
2022-10-23T10:16:01.199Z,48.66
2022-10-23T10:18:37.893Z,48.68
2022-10-23T10:21:16.548Z,49.13
2022-10-23T10:23:48.424Z,48.63
2022-10-23T10:26:31.626Z,48.84
2022-10-23T10:29:14.905Z,48.49
2022-10-23T10:31:57.487Z,49.04
2022-10-23T10:34:31.301Z,47.78
2022-10-23T10:37:07.016Z,48.35
2022-10-23T10:39:42.832Z,48.48
2022-10-23T10:42:30.737Z,49.24
2022-10-23T10:45:06.737Z,48.38
2022-10-23T10:47:47.458Z,48.43
2022-10-23T10:50:27.933Z,46.84
2022-10-23T10:53:25.650Z,45.90
2022-10-23T10:55:56.442Z,47.37
2022-10-23T10:58:31.586Z,48.06
2022-10-23T11:01:04.150Z,48.59
2022-10-23T11:03:40.402Z,47.86
2022-10-23T11:06:16.041Z,46.83
2022-10-23T11:08:56.442Z,48.26
2022-10-23T11:11:33.200Z,49.56
2022-10-23T11:14:01.895Z,48.77
2022-10-23T11:16:35.896Z,49.12
2022-10-23T11:19:12.971Z,48.42
2022-10-23T11:21:45.819Z,48.97
2022-10-23T11:24:45.384Z,48.81
2022-10-23T11:27:32.557Z,49.43
2022-10-23T11:30:13.602Z,50.17
2022-10-23T11:33:13.335Z,52.35
2022-10-23T11:36:05.573Z,51.57
2022-10-23T11:38:36.390Z,52.71
2022-10-23T11:41:07.889Z,53.14
2022-10-23T11:43:49.131Z,53.65
2022-10-23T11:46:31.107Z,54.60
2022-10-23T11:49:02.502Z,54.52
2022-10-23T11:51:34.487Z,55.16
2022-10-23T11:54:24.471Z,55.55
2022-10-23T11:56:57.073Z,55.92
2022-10-23T11:59:30.356Z,55.16
2022-10-23T12:02:01.648Z,56.69
2022-10-23T12:04:40.909Z,57.49
2022-10-23T12:07:22.974Z,56.90
2022-10-23T12:09:55.409Z,57.46
2022-10-23T12:12:33.966Z,57.08
2022-10-23T12:15:20.639Z,56.12
2022-10-23T12:17:51.192Z,56.28
2022-10-23T12:20:39.166Z,55.24
2022-10-23T12:23:48.215Z,55.36
2022-10-23T12:26:50.493Z,53.27
2022-10-23T12:29:32.541Z,53.29
2022-10-23T12:32:17.251Z,53.54
2022-10-23T12:35:08.025Z,52.35
2022-10-23T12:37:57.352Z,52.32
2022-10-23T12:40:29.991Z,52.36
2022-10-23T12:43:00.379Z,52.25
2022-10-23T12:45:32.058Z,51.56
2022-10-23T12:48:01.937Z,51.40
2022-10-23T12:50:32.196Z,52.14
2022-10-23T12:53:02.306Z,51.80
2022-10-23T12:55:50.831Z,52.27
2022-10-23T12:58:24.481Z,51.01
2022-10-23T13:00:59.037Z,51.99
2022-10-23T13:03:29.738Z,51.12
2022-10-23T13:06:02.549Z,51.86
2022-10-23T13:08:35.603Z,50.95
2022-10-23T13:11:25.482Z,51.72
2022-10-23T13:13:56.161Z,50.71
2022-10-23T13:16:27.026Z,49.83
2022-10-23T13:18:55.491Z,49.70
2022-10-23T13:21:25.467Z,49.82
2022-10-23T13:23:54.893Z,49.12
2022-10-23T13:26:30.964Z,48.87
2022-10-23T13:29:00.302Z,49.12
2022-10-23T13:31:32.096Z,48.93
2022-10-23T13:34:25.485Z,49.72
2022-10-23T13:37:04.781Z,49.83
2022-10-23T13:39:34.788Z,50.51
2022-10-23T13:42:13.408Z,50.69
2022-10-23T13:44:42.632Z,51.19
2022-10-23T13:47:13.770Z,51.15
2022-10-23T13:49:42.304Z,52.00
2022-10-23T13:52:13.862Z,51.19
2022-10-23T13:54:43.451Z,51.44
2022-10-23T13:57:16.348Z,51.97
2022-10-23T13:59:44.985Z,52.46
2022-10-23T14:02:20.579Z,52.62
2022-10-23T14:04:49.550Z,53.01
2022-10-23T14:07:18.521Z,52.76
2022-10-23T14:09:47.873Z,53.26
2022-10-23T14:12:19.052Z,53.16
2022-10-23T14:14:52.179Z,53.10
2022-10-23T14:17:20.835Z,53.12
2022-10-23T14:19:50.117Z,54.33
2022-10-23T14:22:19.077Z,55.62
2022-10-23T14:24:47.574Z,56.26
2022-10-23T14:27:16.118Z,56.19
2022-10-23T14:29:46.010Z,56.42
2022-10-23T14:32:14.557Z,56.37
2022-10-23T14:34:45.830Z,56.39
2022-10-23T14:37:14.321Z,56.76
2022-10-23T14:39:47.468Z,56.63
2022-10-23T14:42:18.715Z,56.69
2022-10-23T14:44:49.877Z,56.81
2022-10-23T14:47:19.586Z,57.33
2022-10-23T14:49:52.866Z,57.08
2022-10-23T14:52:21.358Z,57.83
2022-10-23T14:54:51.439Z,57.85
2022-10-23T14:57:21.544Z,58.74
2022-10-23T14:59:51.473Z,58.67
2022-10-23T15:02:19.943Z,58.16
2022-10-23T15:04:48.632Z,59.63
2022-10-23T15:07:17.656Z,59.35
2022-10-23T15:09:46.260Z,60.57
2022-10-23T15:12:14.769Z,61.33
2022-10-23T15:14:43.389Z,60.72
2022-10-23T15:17:15.691Z,61.39
2022-10-23T15:19:44.509Z,61.07
2022-10-23T15:22:13.386Z,61.31
2022-10-23T15:24:41.820Z,61.16
2022-10-23T15:29:43.902Z,61.87
2022-10-23T15:32:13.789Z,61.39
2022-10-23T15:34:42.862Z,61.05
2022-10-23T15:37:12.070Z,60.37
2022-10-23T15:39:40.614Z,61.33
2022-10-23T15:42:09.861Z,60.34
2022-10-23T15:44:40.728Z,61.47
2022-10-23T15:47:09.180Z,60.46
2022-10-23T15:49:39.840Z,61.54
2022-10-23T15:54:42.256Z,60.85
2022-10-23T15:57:11.389Z,61.25
2022-10-23T15:59:39.903Z,60.35
2022-10-23T16:02:08.923Z,60.93
2022-10-23T16:04:38.953Z,60.02
2022-10-23T16:07:07.545Z,60.64
2022-10-23T16:09:36.820Z,60.13
2022-10-23T16:12:05.790Z,60.31
2022-10-23T16:14:34.303Z,60.61
2022-10-23T16:17:02.834Z,60.75
2022-10-23T16:19:31.415Z,61.31
2022-10-23T16:22:02.803Z,61.54
2022-10-23T16:24:31.773Z,61.66
2022-10-23T16:27:00.894Z,61.98
2022-10-23T16:29:29.479Z,62.83
2022-10-23T16:31:59.753Z,63.45
2022-10-23T16:34:28.243Z,63.62
2022-10-23T16:36:56.712Z,63.71
2022-10-23T16:39:48.068Z,64.51
2022-10-23T16:42:34.983Z,65.16
2022-10-23T16:45:23.337Z,65.66
2022-10-23T16:47:51.755Z,66.36
2022-10-23T16:50:20.263Z,65.62
2022-10-23T16:52:50.916Z,66.77
2022-10-23T16:55:23.230Z,65.69
2022-10-23T16:57:51.708Z,65.68
2022-10-23T17:00:21.902Z,65.07
2022-10-23T17:02:50.555Z,64.82
2022-10-23T17:05:18.977Z,64.72
2022-10-23T17:07:47.466Z,63.81
2022-10-23T17:10:16.064Z,63.10
2022-10-23T17:12:46.285Z,63.21
2022-10-23T17:15:14.970Z,63.75
2022-10-23T17:17:43.709Z,62.79
2022-10-23T17:20:12.781Z,63.35
2022-10-23T17:22:41.222Z,63.42
2022-10-23T17:25:11.196Z,63.69
2022-10-23T17:27:39.771Z,63.98
2022-10-23T17:30:12.738Z,64.24
2022-10-23T17:32:41.710Z,64.81
2022-10-23T17:35:11.090Z,64.83
2022-10-23T17:37:39.501Z,65.82
2022-10-23T17:40:08.712Z,66.01
2022-10-23T17:42:37.225Z,66.29
2022-10-23T17:45:06.316Z,65.97
2022-10-23T17:47:36.225Z,65.57
2022-10-23T17:50:06.516Z,65.90
2022-10-23T17:52:34.972Z,65.91
2022-10-23T17:55:03.397Z,65.68
2022-10-23T17:57:31.948Z,66.02
2022-10-23T18:00:00.448Z,65.39
2022-10-23T18:02:28.971Z,66.37
2022-10-23T18:04:58.787Z,65.61
2022-10-23T18:07:27.246Z,66.79
2022-10-23T18:09:55.724Z,66.51
2022-10-23T18:12:24.140Z,68.11
2022-10-23T18:14:52.701Z,68.11
2022-10-23T18:17:21.170Z,67.77
2022-10-23T18:19:50.982Z,68.67
2022-10-23T18:22:20.867Z,68.27
2022-10-23T18:24:49.335Z,67.94
2022-10-23T18:27:17.744Z,68.74
2022-10-23T18:29:46.281Z,67.28
2022-10-23T18:32:14.698Z,68.01
2022-10-23T18:34:43.230Z,66.53
2022-10-23T18:37:11.773Z,66.95
2022-10-23T18:39:41.560Z,68.00
2022-10-23T18:42:10.170Z,67.74
2022-10-23T18:44:38.623Z,68.26
2022-10-23T18:47:07.098Z,68.53
2022-10-23T18:49:35.586Z,69.45
2022-10-23T18:52:04.008Z,69.03
2022-10-23T18:54:32.422Z,67.90
2022-10-23T18:57:02.208Z,70.00
2022-10-23T18:59:30.732Z,71.39
2022-10-23T19:01:59.296Z,69.84
2022-10-23T19:04:29.814Z,67.70
2022-10-23T19:06:59.061Z,70.30
2022-10-23T19:09:27.467Z,61.55
2022-10-23T19:11:55.929Z,54.57
2022-10-23T19:14:27.729Z,51.21
2022-10-23T19:17:02.110Z,50.42
2022-10-23T19:19:35.016Z,49.08
2022-10-23T19:22:05.047Z,48.26
2022-10-23T19:24:39.198Z,46.48
2022-10-23T19:27:08.658Z,46.69
2022-10-23T19:29:39.479Z,46.94
2022-10-23T19:32:08.299Z,46.37
2022-10-23T19:34:36.809Z,45.38
2022-10-23T19:37:05.591Z,44.89
2022-10-23T19:39:34.110Z,45.08
2022-10-23T19:42:02.657Z,45.46
2022-10-23T19:44:31.313Z,43.57
2022-10-23T19:47:01.268Z,44.26
2022-10-23T19:49:29.773Z,43.44
2022-10-23T19:51:58.237Z,42.73
2022-10-23T19:54:26.672Z,42.71
2022-10-23T19:56:56.690Z,44.16
2022-10-23T19:59:25.319Z,45.18
2022-10-23T20:01:53.807Z,45.06
2022-10-23T20:04:23.721Z,43.74
2022-10-23T20:06:52.138Z,44.23
2022-10-23T20:09:20.665Z,45.37
2022-10-23T20:11:49.617Z,46.27
2022-10-23T20:14:18.868Z,46.70
2022-10-23T20:16:51.150Z,46.74
2022-10-23T20:19:24.830Z,46.71
2022-10-23T20:21:53.387Z,47.26
2022-10-23T20:24:22.581Z,47.90
2022-10-23T20:26:53.045Z,48.07
2022-10-23T20:29:23.255Z,47.26
2022-10-23T20:31:52.018Z,47.87
2022-10-23T20:34:20.777Z,48.20
2022-10-23T20:36:50.943Z,48.01
2022-10-23T20:39:24.484Z,48.31
2022-10-23T20:41:55.125Z,49.50
2022-10-23T20:44:24.285Z,48.93
2022-10-23T20:46:53.801Z,49.89
2022-10-23T20:49:22.458Z,51.89
2022-10-23T20:51:55.205Z,51.29
2022-10-23T20:54:25.029Z,52.27
2022-10-23T20:56:53.602Z,54.01
2022-10-23T20:59:22.089Z,54.80
2022-10-23T21:01:53.164Z,55.08
2022-10-23T21:04:26.364Z,54.78
2022-10-23T21:07:09.911Z,56.30
2022-10-23T21:09:39.870Z,55.73
2022-10-23T21:12:08.670Z,55.75
2022-10-23T21:14:37.473Z,55.68
2022-10-23T21:17:05.998Z,56.17
2022-10-23T21:19:34.405Z,56.38
2022-10-23T21:22:04.268Z,56.87
2022-10-23T21:24:32.787Z,56.95
2022-10-23T21:27:01.220Z,57.27
2022-10-23T21:29:29.663Z,56.55
2022-10-23T21:32:00.980Z,56.59
2022-10-23T21:34:29.980Z,57.70
2022-10-23T21:37:14.731Z,57.12
2022-10-23T21:39:45.684Z,56.05
2022-10-23T21:42:15.106Z,57.41
2022-10-23T21:44:43.483Z,57.50
2022-10-23T21:47:12.055Z,56.63
2022-10-23T21:49:40.486Z,57.08
2022-10-23T21:52:08.935Z,56.70
2022-10-23T21:54:37.399Z,57.40
2022-10-23T21:57:14.175Z,55.78
2022-10-23T21:59:42.600Z,56.28
2022-10-23T22:02:11.324Z,56.60
2022-10-23T22:04:40.236Z,56.16
2022-10-23T22:07:10.805Z,56.83
2022-10-23T22:09:39.347Z,56.33
2022-10-23T22:12:11.756Z,56.81
2022-10-23T22:14:40.385Z,57.48
2022-10-23T22:17:08.861Z,56.23
2022-10-23T22:19:37.327Z,56.29
2022-10-23T22:22:05.861Z,55.90
2022-10-23T22:24:34.337Z,56.51
2022-10-23T22:27:02.883Z,56.67
2022-10-23T22:29:32.680Z,57.05
2022-10-23T22:32:01.119Z,57.53
2022-10-23T22:34:51.929Z,57.81
2022-10-23T22:37:19.747Z,58.15
2022-10-23T22:39:51.714Z,58.16
2022-10-23T22:42:20.223Z,57.78
2022-10-23T22:44:49.994Z,58.16
2022-10-23T22:47:18.417Z,57.68
2022-10-23T22:49:46.812Z,58.22
2022-10-23T22:52:15.228Z,59.14
2022-10-23T22:54:43.615Z,58.32
2022-10-23T22:57:12.036Z,57.64
2022-10-23T22:59:40.893Z,57.04
2022-10-23T23:02:10.735Z,57.01
2022-10-23T23:04:39.599Z,57.18
2022-10-23T23:07:09.700Z,56.25
2022-10-23T23:09:39.693Z,56.85
2022-10-23T23:12:09.378Z,57.07
2022-10-23T23:14:38.585Z,58.03
2022-10-23T23:17:08.179Z,57.11
2022-10-23T23:19:38.383Z,57.99
2022-10-23T23:22:06.900Z,57.36
2022-10-23T23:24:35.318Z,58.67
2022-10-23T23:27:03.733Z,58.22
2022-10-23T23:29:32.201Z,56.84
2022-10-23T23:32:01.081Z,57.18
2022-10-23T23:34:29.823Z,56.90
2022-10-23T23:36:59.585Z,57.84
2022-10-23T23:39:28.538Z,58.93
2022-10-23T23:41:57.210Z,58.95
2022-10-23T23:44:25.616Z,60.88
2022-10-23T23:46:54.119Z,58.44
2022-10-23T23:49:22.809Z,59.51
2022-10-23T23:51:51.713Z,61.52
2022-10-23T23:54:21.569Z,61.35
2022-10-23T23:56:50.062Z,59.92
2022-10-23T23:59:18.480Z,59.30
